sensor_id;sensor_type;location;lat;lon;timestamp;P1;durP1;ratioP1;P2;durP2;ratioP2
51616;SDS011;37697;52.588;13.394;2023-02-28T03:54:31;7.70;;;4.10;;
51616;SDS011;37697;52.588;13.394;2023-02-28T05:07:04;10.00;;;5.50;;
51616;SDS011;37697;52.588;13.394;2023-02-28T05:13:09;11.10;;;5.60;;
51616;SDS011;37697;52.588;13.394;2023-02-28T05:18:49;9.90;;;5.50;;
51616;SDS011;37697;52.588;13.394;2023-02-28T05:24:02;8.60;;;5.10;;
51616;SDS011;37697;52.588;13.394;2023-02-28T05:29:23;10.00;;;5.50;;
51616;SDS011;37697;52.588;13.394;2023-02-28T05:34:49;12.00;;;6.60;;
51616;SDS011;37697;52.588;13.394;2023-02-28T05:40:25;13.40;;;6.70;;
51616;SDS011;37697;52.588;13.394;2023-02-28T05:45:48;13.40;;;6.60;;
51616;SDS011;37697;52.588;13.394;2023-02-28T05:51:12;13.40;;;6.90;;
51616;SDS011;37697;52.588;13.394;2023-02-28T05:56:17;10.80;;;6.30;;
51616;SDS011;37697;52.588;13.394;2023-02-28T06:01:25;11.50;;;6.70;;
51616;SDS011;37697;52.588;13.394;2023-02-28T06:06:51;15.00;;;7.10;;
51616;SDS011;37697;52.588;13.394;2023-02-28T06:11:58;14.90;;;7.40;;
51616;SDS011;37697;52.588;13.394;2023-02-28T06:17:29;14.90;;;7.90;;
51616;SDS011;37697;52.588;13.394;2023-02-28T06:28:10;18.70;;;9.40;;
51616;SDS011;37697;52.588;13.394;2023-02-28T06:33:42;29.30;;;13.30;;
51616;SDS011;37697;52.588;13.394;2023-02-28T06:44:36;34.70;;;16.40;;
51616;SDS011;37697;52.588;13.394;2023-02-28T06:50:11;30.90;;;15.70;;
51616;SDS011;37697;52.588;13.394;2023-02-28T07:00:54;32.80;;;15.80;;
51616;SDS011;37697;52.588;13.394;2023-02-28T07:06:31;26.00;;;14.20;;
51616;SDS011;37697;52.588;13.394;2023-02-28T07:17:56;21.60;;;13.10;;
51616;SDS011;37697;52.588;13.394;2023-02-28T07:29:09;24.70;;;11.90;;
51616;SDS011;37697;52.588;13.394;2023-02-28T08:21:13;12.20;;;5.90;;
51616;SDS011;37697;52.588;13.394;2023-02-28T08:32:26;13.60;;;5.70;;
51616;SDS011;37697;52.588;13.394;2023-02-28T08:37:37;8.70;;;4.70;;
51616;SDS011;37697;52.588;13.394;2023-02-28T08:43:07;8.70;;;3.90;;
51616;SDS011;37697;52.588;13.394;2023-02-28T08:54:07;4.00;;;2.00;;
51616;SDS011;37697;52.588;13.394;2023-02-28T08:59:26;4.50;;;2.10;;
51616;SDS011;37697;52.588;13.394;2023-02-28T09:05:30;6.10;;;2.50;;
51616;SDS011;37697;52.588;13.394;2023-02-28T09:11:21;6.10;;;1.90;;
51616;SDS011;37697;52.588;13.394;2023-02-28T10:21:13;1.80;;;0.80;;
51616;SDS011;37697;52.588;13.394;2023-02-28T10:33:02;2.70;;;1.40;;
51616;SDS011;37697;52.588;13.394;2023-02-28T10:56:19;6.90;;;1.60;;
51616;SDS011;37697;52.588;13.394;2023-02-28T11:37:23;3.70;;;1.80;;
51616;SDS011;37697;52.588;13.394;2023-02-28T11:54:21;4.50;;;1.80;;
51616;SDS011;37697;52.588;13.394;2023-02-28T12:05:39;4.10;;;2.40;;
51616;SDS011;37697;52.588;13.394;2023-02-28T12:29:28;4.50;;;1.90;;
51616;SDS011;37697;52.588;13.394;2023-02-28T12:46:44;4.10;;;2.10;;
51616;SDS011;37697;52.588;13.394;2023-02-28T12:58:58;6.20;;;2.20;;
51616;SDS011;37697;52.588;13.394;2023-02-28T13:11:01;5.80;;;2.50;;
51616;SDS011;37697;52.588;13.394;2023-02-28T13:16:49;4.70;;;2.30;;
51616;SDS011;37697;52.588;13.394;2023-02-28T13:22:00;3.70;;;2.10;;
51616;SDS011;37697;52.588;13.394;2023-02-28T13:27:35;3.40;;;2.00;;
51616;SDS011;37697;52.588;13.394;2023-02-28T13:38:57;4.70;;;2.20;;
51616;SDS011;37697;52.588;13.394;2023-02-28T13:44:29;5.90;;;2.50;;
51616;SDS011;37697;52.588;13.394;2023-02-28T14:01:45;4.80;;;2.00;;
51616;SDS011;37697;52.588;13.394;2023-02-28T14:07:06;4.80;;;1.90;;
51616;SDS011;37697;52.588;13.394;2023-02-28T14:17:57;4.60;;;2.30;;
51616;SDS011;37697;52.588;13.394;2023-02-28T14:47:11;3.10;;;1.90;;
51616;SDS011;37697;52.588;13.394;2023-02-28T14:52:39;4.00;;;2.10;;
51616;SDS011;37697;52.588;13.394;2023-02-28T14:58:37;4.60;;;2.20;;
51616;SDS011;37697;52.588;13.394;2023-02-28T15:04:17;3.70;;;2.20;;
51616;SDS011;37697;52.588;13.394;2023-02-28T15:15:47;4.70;;;2.20;;
51616;SDS011;37697;52.588;13.394;2023-02-28T15:21:27;4.40;;;2.10;;
51616;SDS011;37697;52.588;13.394;2023-02-28T15:26:58;5.80;;;2.60;;
51616;SDS011;37697;52.588;13.394;2023-02-28T15:32:30;5.50;;;2.20;;
51616;SDS011;37697;52.588;13.394;2023-02-28T15:38:15;4.40;;;2.30;;
51616;SDS011;37697;52.588;13.394;2023-02-28T15:44:49;3.80;;;2.00;;
51616;SDS011;37697;52.588;13.394;2023-02-28T15:50:10;6.10;;;3.10;;
51616;SDS011;37697;52.588;13.394;2023-02-28T16:01:42;5.00;;;2.30;;
51616;SDS011;37697;52.588;13.394;2023-02-28T16:12:24;5.60;;;2.70;;
51616;SDS011;37697;52.588;13.394;2023-02-28T16:17:40;5.10;;;3.10;;
51616;SDS011;37697;52.588;13.394;2023-02-28T16:22:50;6.30;;;2.90;;
51616;SDS011;37697;52.588;13.394;2023-02-28T16:28:04;5.90;;;2.80;;
51616;SDS011;37697;52.588;13.394;2023-02-28T16:33:31;4.70;;;2.60;;
51616;SDS011;37697;52.588;13.394;2023-02-28T16:38:52;4.50;;;2.70;;
51616;SDS011;37697;52.588;13.394;2023-02-28T16:55:21;4.40;;;2.10;;
51616;SDS011;37697;52.588;13.394;2023-02-28T17:00:50;4.30;;;2.60;;
51616;SDS011;37697;52.588;13.394;2023-02-28T17:06:04;6.30;;;3.10;;
51616;SDS011;37697;52.588;13.394;2023-02-28T17:11:50;5.60;;;2.80;;
51616;SDS011;37697;52.588;13.394;2023-02-28T17:17:09;8.40;;;3.50;;
51616;SDS011;37697;52.588;13.394;2023-02-28T17:22:25;8.80;;;4.50;;
51616;SDS011;37697;52.588;13.394;2023-02-28T17:28:07;8.20;;;4.60;;
51616;SDS011;37697;52.588;13.394;2023-02-28T17:33:23;11.20;;;4.20;;
51616;SDS011;37697;52.588;13.394;2023-02-28T17:38:47;7.90;;;4.40;;
51616;SDS011;37697;52.588;13.394;2023-02-28T17:44:36;6.80;;;3.90;;
51616;SDS011;37697;52.588;13.394;2023-02-28T20:27:17;29.60;;;19.10;;
51616;SDS011;37697;52.588;13.394;2023-02-28T20:35:11;30.40;;;20.00;;
51616;SDS011;37697;52.588;13.394;2023-02-28T20:40:38;29.00;;;18.30;;
51616;SDS011;37697;52.588;13.394;2023-02-28T20:46:04;27.90;;;19.00;;
51616;SDS011;37697;52.588;13.394;2023-02-28T20:51:32;30.30;;;18.40;;
51616;SDS011;37697;52.588;13.394;2023-02-28T20:56:58;33.40;;;20.10;;
51616;SDS011;37697;52.588;13.394;2023-02-28T21:02:24;33.40;;;21.20;;
51616;SDS011;37697;52.588;13.394;2023-02-28T21:07:50;34.40;;;20.40;;
51616;SDS011;37697;52.588;13.394;2023-02-28T21:13:16;29.80;;;18.80;;
51616;SDS011;37697;52.588;13.394;2023-02-28T21:18:42;29.70;;;18.60;;
51616;SDS011;37697;52.588;13.394;2023-02-28T21:24:09;31.30;;;19.50;;
51616;SDS011;37697;52.588;13.394;2023-02-28T21:29:35;36.20;;;22.70;;
51616;SDS011;37697;52.588;13.394;2023-02-28T21:35:01;28.60;;;17.40;;
51616;SDS011;37697;52.588;13.394;2023-02-28T21:40:27;29.50;;;18.10;;
51616;SDS011;37697;52.588;13.394;2023-02-28T21:45:53;28.90;;;17.20;;
51616;SDS011;37697;52.588;13.394;2023-02-28T21:51:20;27.60;;;16.30;;
51616;SDS011;37697;52.588;13.394;2023-02-28T21:56:47;27.60;;;16.70;;
51616;SDS011;37697;52.588;13.394;2023-02-28T22:02:16;27.40;;;16.60;;
51616;SDS011;37697;52.588;13.394;2023-02-28T22:07:44;25.20;;;15.50;;
51616;SDS011;37697;52.588;13.394;2023-02-28T22:13:01;26.80;;;15.00;;
51616;SDS011;37697;52.588;13.394;2023-02-28T22:18:27;29.50;;;15.40;;
51616;SDS011;37697;52.588;13.394;2023-02-28T22:23:53;23.70;;;14.50;;
51616;SDS011;37697;52.588;13.394;2023-02-28T22:29:19;24.30;;;13.80;;
51616;SDS011;37697;52.588;13.394;2023-02-28T22:34:45;23.10;;;13.80;;
51616;SDS011;37697;52.588;13.394;2023-02-28T22:40:15;23.90;;;14.00;;
51616;SDS011;37697;52.588;13.394;2023-02-28T22:45:41;22.00;;;12.80;;
51616;SDS011;37697;52.588;13.394;2023-02-28T22:51:03;24.60;;;13.70;;
51616;SDS011;37697;52.588;13.394;2023-02-28T22:56:33;22.60;;;12.90;;
51616;SDS011;37697;52.588;13.394;2023-02-28T23:01:59;25.60;;;14.00;;
51616;SDS011;37697;52.588;13.394;2023-02-28T23:07:25;28.10;;;15.20;;
51616;SDS011;37697;52.588;13.394;2023-02-28T23:12:51;31.60;;;16.40;;
51616;SDS011;37697;52.588;13.394;2023-02-28T23:18:17;29.50;;;15.40;;
51616;SDS011;37697;52.588;13.394;2023-02-28T23:23:42;30.20;;;16.90;;
51616;SDS011;37697;52.588;13.394;2023-02-28T23:29:08;28.70;;;16.50;;
51616;SDS011;37697;52.588;13.394;2023-02-28T23:34:34;29.90;;;16.20;;
51616;SDS011;37697;52.588;13.394;2023-02-28T23:40:00;32.30;;;18.00;;
51616;SDS011;37697;52.588;13.394;2023-02-28T23:45:25;26.70;;;15.80;;
51616;SDS011;37697;52.588;13.394;2023-02-28T23:50:51;29.40;;;16.70;;
51616;SDS011;37697;52.588;13.394;2023-02-28T23:56:18;27.80;;;15.40;;
